Time;durP1;ratioP1;P1;durP2;ratioP2;P2;SDS_P1;SDS_P2;PMS_P1;PMS_P2;Temp;Humidity;BMP_temperature;BMP_pressure;BME280_temperature;BME280_humidity;BME280_pressure;Samples;Min_cycle;Max_cycle;Signal;HPM_P1;HPM_P2
2022/04/15 00:01:17;;;;;;;4.60;1.97;;;;;;;13.27;46.96;99576.22;4955398;29;20260;-87
2022/04/15 00:03:43;;;;;;;6.00;2.83;;;;;;;13.10;47.58;99573.72;4955230;29;20188;-87
2022/04/15 00:06:10;;;;;;;19.33;3.67;;;;;;;13.04;47.42;99566.13;4938460;29;20568;-87
2022/04/15 00:08:36;;;;;;;4.47;1.80;;;;;;;12.87;47.88;99572.31;4938015;29;20184;-87
2022/04/15 00:11:02;;;;;;;9.07;2.00;;;;;;;12.91;47.48;99579.97;4937975;29;20686;-87
2022/04/15 00:13:29;;;;;;;6.57;1.90;;;;;;;12.89;47.11;99580.97;4941688;29;20184;-86
2022/04/15 00:15:59;;;;;;;8.70;2.00;;;;;;;12.92;47.66;99570.25;4959148;29;20187;-87
2022/04/15 00:18:26;;;;;;;5.03;1.80;;;;;;;12.90;47.71;99578.25;4958833;29;20220;-87
2022/04/15 00:20:52;;;;;;;5.27;2.10;;;;;;;12.93;47.64;99580.72;4941851;29;20187;-87
2022/04/15 00:23:20;;;;;;;4.87;2.43;;;;;;;12.95;48.22;99570.09;4958770;29;20177;-87
2022/04/15 00:25:45;;;;;;;3.37;1.60;;;;;;;12.83;48.06;99581.31;4959175;29;20714;-87
2022/04/15 00:28:11;;;;;;;6.17;2.93;;;;;;;12.84;47.86;99572.50;4958681;29;20184;-87
2022/04/15 00:30:36;;;;;;;7.63;2.53;;;;;;;12.76;47.79;99574.69;4958647;29;20188;-87
2022/04/15 00:33:01;;;;;;;3.50;2.23;;;;;;;12.70;47.95;99575.88;4959041;29;20192;-87
2022/04/15 00:35:27;;;;;;;9.67;2.93;;;;;;;12.73;47.98;99574.84;4958555;29;20191;-87
2022/04/15 00:37:52;;;;;;;5.03;2.07;;;;;;;12.73;47.62;99570.44;4958487;29;20650;-87
2022/04/15 00:40:18;;;;;;;7.80;2.97;;;;;;;12.64;48.00;99575.34;4941507;29;20291;-87
2022/04/15 00:42:43;;;;;;;8.77;3.53;;;;;;;12.37;49.46;99568.94;4958313;28;20193;-87
2022/04/15 00:45:09;;;;;;;5.27;2.27;;;;;;;12.46;48.85;99566.66;4958273;29;20207;-87
2022/04/15 00:47:54;;;;;;;6.50;2.10;;;;;;;12.44;48.57;99573.78;4958330;29;20245;-87
2022/04/15 00:50:22;;;;;;;3.63;2.20;;;;;;;12.28;48.81;99571.13;4958272;29;20237;-87
2022/04/15 00:52:50;;;;;;;11.67;2.63;;;;;;;12.31;49.00;99578.00;4941298;29;20178;-87
2022/04/15 00:55:18;;;;;;;5.17;2.40;;;;;;;12.30;48.92;99573.66;4958472;29;20561;-87
2022/04/15 00:57:51;;;;;;;6.30;2.40;;;;;;;12.24;49.42;99579.22;4941489;29;20196;-87
2022/04/15 01:00:17;;;;;;;5.03;2.13;;;;;;;12.26;48.78;99566.88;4958685;29;20196;-87
2022/04/15 01:02:44;;;;;;;7.77;2.70;;;;;;;12.29;48.46;99574.56;4958071;29;20269;-86
2022/04/15 01:05:12;;;;;;;3.87;1.70;;;;;;;12.38;48.21;99566.22;4941044;29;20221;-87
2022/04/15 01:07:57;;;;;;;5.13;2.40;;;;;;;12.24;48.24;99573.97;4958485;29;20183;-87
2022/04/15 01:10:24;;;;;;;3.80;2.03;;;;;;;12.11;48.71;99576.38;4958227;29;20180;-87
2022/04/15 01:12:55;;;;;;;2.83;1.77;;;;;;;12.07;48.42;99564.34;4940935;29;20229;-87
2022/04/15 01:15:22;;;;;;;3.93;2.00;;;;;;;12.14;47.77;99567.50;4958133;29;20242;-87
2022/04/15 01:17:47;;;;;;;3.23;1.33;;;;;;;12.08;47.69;99570.47;4957811;29;20190;-87
2022/04/15 01:20:13;;;;;;;2.33;1.57;;;;;;;12.02;47.84;99565.50;4957726;29;20186;-86
2022/04/15 01:22:41;;;;;;;8.80;1.87;;;;;;;11.93;48.61;99566.81;4957683;28;20213;-87
2022/04/15 01:25:09;;;;;;;3.57;1.63;;;;;;;11.84;48.83;99561.22;4957195;29;20634;-87
2022/04/15 01:27:39;;;;;;;3.77;1.83;;;;;;;11.74;49.29;99565.22;4940722;29;20679;-87
2022/04/15 01:30:09;;;;;;;5.83;1.50;;;;;;;11.80;48.77;99564.91;4958089;29;20185;-87
2022/04/15 01:32:34;;;;;;;5.63;1.83;;;;;;;11.81;49.02;99564.84;4957820;29;20216;-87
2022/04/15 01:35:00;;;;;;;4.93;1.70;;;;;;;11.79;49.12;99565.84;4957469;29;20641;-87
2022/04/15 01:37:30;;;;;;;2.20;1.10;;;;;;;11.82;49.58;99556.00;4957709;29;20177;-87
2022/04/15 01:39:56;;;;;;;2.60;1.80;;;;;;;11.74;50.10;99559.97;4957407;29;20319;-88
2022/04/15 01:42:25;;;;;;;3.57;1.50;;;;;;;11.78;49.50;99554.47;4957381;28;20248;-87
2022/04/15 01:44:51;;;;;;;3.23;1.20;;;;;;;11.74;49.95;99554.72;4957339;29;20207;-88
2022/04/15 01:47:16;;;;;;;1.77;1.07;;;;;;;11.62;49.83;99551.75;4940351;29;20314;-88
2022/04/15 01:49:43;;;;;;;3.20;1.37;;;;;;;11.59;50.20;99562.41;4940275;29;20200;-87
2022/04/15 01:52:08;;;;;;;3.37;1.30;;;;;;;11.45;51.21;99564.03;4957186;29;20289;-87
2022/04/15 01:54:34;;;;;;;3.07;1.43;;;;;;;11.50;50.33;99552.34;4940072;29;20277;-87
2022/04/15 01:57:00;;;;;;;3.53;1.13;;;;;;;11.54;50.65;99553.91;4957077;29;20177;-88
2022/04/15 01:59:25;;;;;;;4.33;1.10;;;;;;;11.52;49.71;99552.28;4957041;29;20177;-88
2022/04/15 02:01:54;;;;;;;1.97;1.10;;;;;;;11.44;49.88;99547.41;4940130;29;20181;-88
2022/04/15 02:04:24;;;;;;;3.93;1.70;;;;;;;11.41;50.06;99551.97;4956919;29;20280;-87
2022/04/15 02:06:51;;;;;;;4.57;1.93;;;;;;;11.39;50.33;99545.94;4956862;29;20197;-88
2022/04/15 02:09:17;;;;;;;2.07;1.27;;;;;;;11.41;50.50;99550.19;4956845;29;20626;-88
2022/04/15 02:11:43;;;;;;;4.73;1.10;;;;;;;11.32;51.14;99542.75;4956822;29;20209;-88
2022/04/15 02:14:09;;;;;;;1.87;1.17;;;;;;;11.33;51.33;99541.84;4957057;29;20184;-88
2022/04/15 02:16:35;;;;;;;2.73;1.57;;;;;;;11.40;51.36;99545.03;4957024;29;20177;-87
2022/04/15 02:19:00;;;;;;;2.83;1.30;;;;;;;11.54;50.92;99525.03;4939855;29;20213;-88
2022/04/15 02:21:26;;;;;;;3.33;1.17;;;;;;;11.51;50.80;99521.69;4939658;29;20220;-87
2022/04/15 02:23:51;;;;;;;6.63;1.90;;;;;;;11.46;50.69;99524.56;4956655;29;20181;-87
2022/04/15 02:26:17;;;;;;;4.23;1.43;;;;;;;11.42;51.04;99522.16;4956502;29;20724;-87
2022/04/15 02:28:42;;;;;;;3.70;1.60;;;;;;;11.43;51.33;99524.72;4939635;29;20217;-88
2022/04/15 02:31:08;;;;;;;4.80;1.93;;;;;;;11.32;51.74;99520.94;4939568;29;20637;-88
2022/04/15 02:33:34;;;;;;;12.10;1.80;;;;;;;11.28;51.63;99522.84;4956415;29;20264;-88
2022/04/15 02:35:59;;;;;;;3.17;1.67;;;;;;;11.24;52.03;99529.16;4956338;28;20253;-87
2022/04/15 02:38:25;;;;;;;2.93;1.97;;;;;;;11.18;51.99;99524.22;4956336;29;20248;-87
2022/04/15 02:40:50;;;;;;;2.83;1.50;;;;;;;11.16;51.76;99528.72;4956321;29;20265;-87
2022/04/15 02:43:17;;;;;;;7.53;1.70;;;;;;;11.16;51.36;99531.34;4939093;29;20542;-87
2022/04/15 02:45:43;;;;;;;4.03;1.17;;;;;;;11.09;51.16;99525.53;4956116;29;20213;-88
2022/04/15 02:48:08;;;;;;;3.23;1.57;;;;;;;11.04;51.11;99522.28;4956391;29;20181;-87
2022/04/15 02:50:34;;;;;;;3.63;1.63;;;;;;;10.94;52.17;99530.66;4939211;29;20196;-88
2022/04/15 02:53:01;;;;;;;1.60;0.80;;;;;;;10.90;51.95;99526.50;4956310;29;20618;-87
2022/04/15 02:55:26;;;;;;;4.83;1.13;;;;;;;11.08;51.50;99522.97;4955965;29;20169;-87
2022/04/15 02:57:52;;;;;;;4.63;1.27;;;;;;;11.04;51.43;99530.13;4939045;29;20181;-87
2022/04/15 03:00:18;;;;;;;3.40;1.53;;;;;;;10.91;51.50;99525.53;4939002;29;20191;-87
2022/04/15 03:02:44;;;;;;;2.57;1.30;;;;;;;10.85;51.91;99526.69;4955878;29;20173;-87
2022/04/15 03:05:09;;;;;;;4.77;1.80;;;;;;;10.81;51.53;99532.16;4955844;29;20206;-87
2022/04/15 03:07:36;;;;;;;2.17;0.97;;;;;;;10.83;51.59;99528.53;4955746;29;20718;-87
2022/04/15 03:10:02;;;;;;;3.17;1.90;;;;;;;10.81;52.02;99526.91;4955793;29;20280;-87
2022/04/15 03:12:27;;;;;;;4.50;1.53;;;;;;;10.74;52.59;99529.00;4938822;29;20641;-87
2022/04/15 03:14:53;;;;;;;1.27;0.90;;;;;;;10.65;53.14;99528.53;4938739;29;20184;-87
2022/04/15 03:17:19;;;;;;;7.63;1.87;;;;;;;10.67;53.48;99527.56;4955574;29;20280;-87
2022/04/15 03:19:44;;;;;;;2.37;1.30;;;;;;;10.63;53.14;99536.50;4938647;29;20185;-88
2022/04/15 03:22:10;;;;;;;2.10;1.30;;;;;;;10.55;53.52;99538.63;4938646;29;20185;-88
2022/04/15 03:24:35;;;;;;;1.40;1.00;;;;;;;10.39;53.25;99538.47;4955527;29;20220;-87
2022/04/15 03:27:00;;;;;;;0.97;0.70;;;;;;;10.38;53.45;99541.13;4938485;29;20275;-87
2022/04/15 03:29:26;;;;;;;1.40;0.77;;;;;;;10.35;53.01;99542.13;4938443;29;20185;-88
2022/04/15 03:31:51;;;;;;;4.37;1.60;;;;;;;10.38;52.87;99544.63;4955429;29;20177;-87
2022/04/15 03:34:17;;;;;;;2.03;1.00;;;;;;;10.40;52.70;99548.00;4955349;29;20263;-87
2022/04/15 03:36:42;;;;;;;2.57;1.07;;;;;;;10.44;52.66;99543.50;4955342;29;20169;-87
2022/04/15 03:39:08;;;;;;;2.47;1.20;;;;;;;10.31;53.73;99540.59;4938366;29;20582;-87
2022/04/15 03:41:34;;;;;;;2.33;1.10;;;;;;;10.28;54.02;99540.72;4955117;28;20181;-87
2022/04/15 03:44:01;;;;;;;3.13;1.63;;;;;;;10.21;54.21;99534.06;4955476;29;20184;-88
2022/04/15 03:46:27;;;;;;;7.13;1.63;;;;;;;10.17;54.38;99537.72;4955021;28;20204;-87
2022/04/15 03:48:52;;;;;;;1.60;1.00;;;;;;;10.15;54.45;99534.31;4955316;29;20177;-88
2022/04/15 03:51:17;;;;;;;2.67;0.97;;;;;;;10.26;53.89;99532.09;4955168;29;20181;-88
2022/04/15 03:53:43;;;;;;;1.83;1.17;;;;;;;10.38;53.49;99539.38;4938185;29;20749;-88
2022/04/15 03:56:08;;;;;;;4.03;1.30;;;;;;;10.37;53.74;99540.31;4955030;29;20218;-87
2022/04/15 03:58:35;;;;;;;1.87;1.13;;;;;;;10.26;53.69;99536.47;4955108;29;20720;-88
2022/04/15 04:01:00;;;;;;;1.43;0.83;;;;;;;10.25;53.99;99543.47;4955030;29;20181;-88
2022/04/15 04:03:26;;;;;;;5.47;1.03;;;;;;;10.34;54.07;99537.84;4938088;29;20577;-87
2022/04/15 04:05:51;;;;;;;7.70;1.43;;;;;;;10.37;53.68;99545.56;4955181;29;20212;-88
2022/04/15 04:08:16;;;;;;;2.27;0.97;;;;;;;10.31;53.36;99543.19;4955241;29;20177;-87
2022/04/15 04:10:42;;;;;;;3.50;1.53;;;;;;;10.40;53.31;99545.38;4955469;29;20181;-86
2022/04/15 04:13:08;;;;;;;1.97;1.00;;;;;;;10.47;53.61;99544.22;4955434;29;20181;-88
2022/04/15 04:15:33;;;;;;;1.53;1.07;;;;;;;10.63;53.60;99554.00;4955108;29;20180;-88
2022/04/15 04:17:59;;;;;;;1.90;1.20;;;;;;;10.73;52.80;99542.16;4937983;29;20196;-87
2022/04/15 04:20:24;;;;;;;6.30;1.37;;;;;;;10.80;51.97;99543.56;4954931;29;20204;-87
2022/04/15 04:22:50;;;;;;;6.37;1.17;;;;;;;10.80;52.68;99548.81;4954825;29;20220;-88
2022/04/15 04:25:15;;;;;;;15.43;4.50;;;;;;;10.84;53.06;99551.22;4955318;29;20173;-88
2022/04/15 04:27:42;;;;;;;4.50;1.77;;;;;;;10.84;53.21;99545.13;4954654;29;20284;-88
2022/04/15 04:30:09;;;;;;;4.20;2.17;;;;;;;10.97;52.70;99546.25;4954786;29;20178;-88
2022/04/15 04:32:35;;;;;;;8.17;3.37;;;;;;;11.20;51.44;99548.59;4954971;29;20177;-87
2022/04/15 04:35:01;;;;;;;13.60;4.63;;;;;;;11.42;50.03;99543.16;4954724;29;20206;-88
2022/04/15 04:37:26;;;;;;;4.77;1.97;;;;;;;11.74;49.92;99545.03;4937758;29;20219;-88
2022/04/15 04:39:52;;;;;;;4.47;1.77;;;;;;;12.13;48.64;99542.16;4937805;29;20248;-88
2022/04/15 04:42:20;;;;;;;3.10;1.20;;;;;;;12.53;47.06;99543.50;4954507;28;20683;-87
2022/04/15 04:44:46;;;;;;;2.00;1.00;;;;;;;12.90;46.08;99540.56;4954612;29;20182;-88
2022/04/15 04:47:12;;;;;;;3.17;1.30;;;;;;;13.17;44.92;99544.31;4954823;29;20272;-88
2022/04/15 04:49:37;;;;;;;2.10;0.90;;;;;;;13.55;44.04;99539.47;4955055;29;20247;-88
2022/04/15 04:52:04;;;;;;;2.83;1.10;;;;;;;14.08;43.31;99537.16;4937631;29;20178;-88
2022/04/15 04:54:30;;;;;;;5.03;2.37;;;;;;;14.71;42.33;99539.44;4955066;29;20214;-88
2022/04/15 04:56:56;;;;;;;3.80;1.83;;;;;;;15.23;40.95;99536.94;4954790;29;20177;-89
2022/04/15 04:59:23;;;;;;;7.20;0.90;;;;;;;15.53;40.40;99547.31;4939222;29;20189;-88
2022/04/15 05:01:48;;;;;;;0.93;0.53;;;;;;;15.61;39.91;99545.03;4941253;29;20195;-89
2022/04/15 05:04:14;;;;;;;5.73;1.63;;;;;;;15.80;39.06;99541.03;4958091;29;20174;-88
2022/04/15 05:06:39;;;;;;;5.63;1.90;;;;;;;16.07;38.95;99543.59;4958208;29;20201;-88
2022/04/15 05:09:05;;;;;;;10.97;2.50;;;;;;;16.39;38.24;99531.66;4958499;29;20264;-88
2022/04/15 05:11:30;;;;;;;3.57;1.40;;;;;;;16.66;38.16;99538.63;4957815;29;20190;-88
2022/04/15 05:13:55;;;;;;;2.93;1.33;;;;;;;16.84;38.41;99542.63;4941332;29;20193;-88
2022/04/15 05:16:21;;;;;;;4.83;1.53;;;;;;;17.01;37.77;99543.09;4940963;29;20209;-88
2022/04/15 05:18:47;;;;;;;2.03;0.97;;;;;;;16.84;37.81;99539.97;4940879;29;20266;-88
2022/04/15 05:21:13;;;;;;;3.77;1.43;;;;;;;16.70;38.66;99543.59;4957744;29;20559;-88
2022/04/15 05:23:38;;;;;;;3.60;1.33;;;;;;;16.61;38.86;99541.63;4941027;29;20621;-88
2022/04/15 05:26:04;;;;;;;2.43;1.13;;;;;;;16.54;39.16;99543.84;4957544;29;20299;-88
2022/04/15 05:28:32;;;;;;;2.73;1.10;;;;;;;16.45;39.63;99540.97;4940558;29;20196;-89
2022/04/15 05:30:58;;;;;;;2.10;1.20;;;;;;;16.37;39.82;99544.16;4957520;29;20207;-87
2022/04/15 05:33:23;;;;;;;4.87;1.43;;;;;;;16.18;40.25;99541.06;4957555;29;20528;-88
2022/04/15 05:35:49;;;;;;;4.60;1.67;;;;;;;16.19;40.76;99545.44;4957479;29;20180;-88
2022/04/15 05:38:14;;;;;;;2.50;1.33;;;;;;;16.21;40.75;99543.50;4940851;29;20635;-88
2022/04/15 05:40:40;;;;;;;4.53;1.30;;;;;;;16.26;41.11;99538.75;4957904;29;20191;-88
2022/04/15 05:43:05;;;;;;;4.77;1.97;;;;;;;16.25;41.52;99549.41;4957272;28;20247;-88
2022/04/15 05:45:30;;;;;;;3.30;1.33;;;;;;;16.34;40.97;99549.66;4957502;29;20180;-89
2022/04/15 05:47:57;;;;;;;1.40;0.70;;;;;;;16.48;41.04;99546.03;4940365;29;20185;-88
2022/04/15 05:50:24;;;;;;;6.43;1.80;;;;;;;16.59;39.58;99552.28;4957756;29;20278;-87
2022/04/15 05:52:49;;;;;;;6.30;1.33;;;;;;;16.45;38.68;99549.75;4957228;29;20661;-88
2022/04/15 05:55:14;;;;;;;2.50;1.33;;;;;;;16.48;39.08;99548.69;4957165;29;20184;-89
2022/04/15 05:57:40;;;;;;;2.97;1.20;;;;;;;16.76;40.19;99555.56;4957118;29;20173;-88
2022/04/15 06:00:07;;;;;;;3.40;1.37;;;;;;;16.98;38.82;99551.25;4957082;29;20188;-89
2022/04/15 06:02:32;;;;;;;3.20;1.70;;;;;;;17.10;40.04;99547.72;4957026;29;20180;-89
2022/04/15 06:04:58;;;;;;;4.37;1.87;;;;;;;17.36;40.46;99551.13;4957004;29;20667;-88
2022/04/15 06:07:23;;;;;;;4.33;1.80;;;;;;;17.56;39.57;99537.25;4957082;29;20548;-88
2022/04/15 06:09:49;;;;;;;5.97;1.43;;;;;;;17.74;39.14;99541.16;4956602;28;20260;-88
2022/04/15 06:12:15;;;;;;;3.77;1.57;;;;;;;17.75;36.87;99537.56;4957366;29;20243;-88
2022/04/15 06:14:41;;;;;;;3.83;1.60;;;;;;;18.02;36.19;99545.25;4957093;29;20180;-89
2022/04/15 06:17:07;;;;;;;2.10;0.97;;;;;;;18.31;35.63;99537.69;4939859;29;20185;-89
2022/04/15 06:19:32;;;;;;;3.17;1.63;;;;;;;18.45;35.18;99534.78;4957236;29;20177;-90
2022/04/15 06:21:58;;;;;;;2.37;1.07;;;;;;;18.73;33.83;99537.00;4940194;29;20192;-90
2022/04/15 06:24:23;;;;;;;2.60;0.93;;;;;;;18.98;33.88;99533.22;4939777;29;20181;-90
2022/04/15 06:26:50;;;;;;;5.33;2.07;;;;;;;19.37;33.58;99537.09;4956534;29;20216;-90
2022/04/15 06:29:16;;;;;;;2.20;1.10;;;;;;;19.85;33.01;99527.72;4957413;29;20173;-90
2022/04/15 06:31:41;;;;;;;1.83;0.90;;;;;;;20.29;31.94;99526.63;4956777;29;20204;-90
2022/04/15 06:34:07;;;;;;;2.27;1.00;;;;;;;20.52;31.36;99533.47;4956421;29;20177;-91
2022/04/15 06:36:32;;;;;;;4.57;1.20;;;;;;;20.66;31.23;99529.59;4939569;29;20536;-91
2022/04/15 06:38:58;;;;;;;3.20;1.23;;;;;;;20.66;31.33;99529.59;4940612;29;20188;-90
2022/04/15 06:41:23;;;;;;;1.93;0.97;;;;;;;20.80;30.54;99534.56;4956403;29;20185;-91
2022/04/15 06:43:49;;;;;;;3.00;1.13;;;;;;;21.00;31.05;99536.28;4939883;29;20255;-92
2022/04/15 06:46:14;;;;;;;2.60;1.27;;;;;;;21.04;31.31;99529.69;4939916;29;20672;-92
2022/04/15 06:48:40;;;;;;;2.43;0.90;;;;;;;21.21;31.16;99539.75;4956303;29;20213;-92
2022/04/15 06:51:05;;;;;;;4.20;1.20;;;;;;;21.48;30.65;99530.22;4956158;29;20549;-90
2022/04/15 06:53:31;;;;;;;4.03;1.10;;;;;;;21.59;30.46;99535.44;4956200;29;20239;-92
2022/04/15 06:55:56;;;;;;;4.13;1.60;;;;;;;21.93;31.06;99531.38;4939473;29;20177;-93
2022/04/15 06:58:22;;;;;;;5.20;1.30;;;;;;;22.28;31.63;99528.88;4956139;29;20638;-91
2022/04/15 07:00:48;;;;;;;3.57;1.33;;;;;;;22.69;30.31;99532.16;4956552;29;20189;-90
2022/04/15 07:03:14;;;;;;;2.37;1.20;;;;;;;22.96;30.65;99519.63;4955791;29;20185;-91
2022/04/15 07:05:40;;;;;;;1.97;1.13;;;;;;;23.37;28.90;99522.78;4955784;29;20248;-92
2022/04/15 07:08:10;;;;;;;9.23;1.40;;;;;;;23.63;29.05;99524.53;4956029;29;20283;-92
2022/04/15 07:10:39;;;;;;;2.90;1.03;;;;;;;23.97;28.62;99513.94;4955894;29;20272;-92
2022/04/15 07:13:05;;;;;;;2.47;1.10;;;;;;;24.37;29.47;99521.44;4956216;29;20556;-91
2022/04/15 07:15:30;;;;;;;3.60;1.53;;;;;;;24.74;26.85;99527.31;4939475;29;20188;-93
2022/04/15 07:17:56;;;;;;;2.67;1.43;;;;;;;24.70;27.49;99531.31;4955731;29;20181;-91
2022/04/15 07:20:22;;;;;;;3.43;1.57;;;;;;;24.70;27.05;99517.06;4938899;29;20181;-91
2022/04/15 07:22:53;;;;;;;3.57;1.10;;;;;;;24.47;27.05;99524.84;4954943;28;20184;-90
2022/04/15 07:25:19;;;;;;;3.13;1.20;;;;;;;24.06;29.28;99517.50;4955812;29;20181;-92
2022/04/15 07:27:44;;;;;;;4.17;2.23;;;;;;;23.69;29.67;99520.38;4938592;29;20216;-90
2022/04/15 07:30:10;;;;;;;3.00;1.57;;;;;;;23.78;30.62;99512.28;4955457;29;20264;-89
2022/04/15 07:32:36;;;;;;;3.03;1.60;;;;;;;24.10;29.54;99517.09;4955753;29;20259;-92
2022/04/15 07:35:01;;;;;;;2.90;1.23;;;;;;;24.39;28.99;99516.75;4938626;29;20187;-92
2022/04/15 07:37:27;;;;;;;2.63;1.40;;;;;;;24.57;28.99;99509.47;4938607;29;20571;-93
2022/04/15 07:39:52;;;;;;;4.53;1.57;;;;;;;24.75;28.84;99518.28;4938583;29;20181;-92
2022/04/15 07:42:18;;;;;;;2.43;1.10;;;;;;;24.78;28.20;99506.38;4938090;29;20637;-91
2022/04/15 07:44:44;;;;;;;4.00;1.60;;;;;;;24.82;28.28;99513.13;4954554;29;20523;-90
2022/04/15 07:47:10;;;;;;;2.73;1.37;;;;;;;24.93;29.81;99511.00;4954646;29;20208;-92
2022/04/15 07:49:36;;;;;;;2.87;1.50;;;;;;;24.99;27.90;99514.88;4954330;29;20607;-91
2022/04/15 07:52:04;;;;;;;3.10;1.57;;;;;;;24.96;27.72;99512.50;4937500;29;20252;-91
2022/04/15 07:54:30;;;;;;;3.43;1.23;;;;;;;24.81;28.27;99503.41;4937406;29;20200;-91
2022/04/15 07:56:55;;;;;;;5.30;1.47;;;;;;;24.90;28.62;99499.75;4937416;29;20173;-90
2022/04/15 07:59:21;;;;;;;3.73;1.30;;;;;;;24.67;27.89;99498.63;4954593;29;20192;-90
2022/04/15 08:01:46;;;;;;;4.23;1.50;;;;;;;24.68;28.74;99497.63;4937199;29;20185;-91
2022/04/15 08:04:12;;;;;;;4.20;1.50;;;;;;;24.74;28.58;99499.66;4937325;29;20192;-91
2022/04/15 08:06:37;;;;;;;2.20;1.20;;;;;;;24.81;26.91;99496.22;4937385;29;20224;-91
2022/04/15 08:09:03;;;;;;;4.30;1.80;;;;;;;24.84;27.38;99495.88;4954372;29;20621;-93
2022/04/15 08:11:29;;;;;;;2.20;1.30;;;;;;;24.78;27.19;99492.97;4937607;29;20609;-91
2022/04/15 08:13:56;;;;;;;3.23;1.30;;;;;;;24.74;28.65;99492.44;4954395;29;20637;-92
2022/04/15 08:16:23;;;;;;;3.77;1.17;;;;;;;24.74;27.24;99487.09;4937387;29;20640;-91
2022/04/15 08:18:49;;;;;;;2.47;1.30;;;;;;;24.81;28.80;99490.00;4937353;29;20546;-91
2022/04/15 08:21:15;;;;;;;2.87;1.50;;;;;;;24.87;27.85;99481.28;4937179;29;20268;-93
2022/04/15 08:23:40;;;;;;;3.80;1.30;;;;;;;24.97;26.83;99474.78;4937578;29;20629;-93
2022/04/15 08:26:06;;;;;;;2.90;1.33;;;;;;;24.97;28.04;99476.66;4937231;29;20205;-92
2022/04/15 08:28:31;;;;;;;4.80;1.23;;;;;;;25.02;27.78;99472.47;4937172;29;20181;-91
2022/04/15 08:30:57;;;;;;;4.30;1.20;;;;;;;25.12;27.38;99468.81;4937027;29;20696;-90
2022/04/15 08:33:23;;;;;;;3.23;1.10;;;;;;;25.23;26.89;99457.75;4938920;29;20195;-89
2022/04/15 08:35:49;;;;;;;2.20;0.90;;;;;;;25.17;28.12;99463.78;4957222;29;20606;-89
2022/04/15 08:38:14;;;;;;;3.73;1.40;;;;;;;25.14;27.61;99458.72;4957590;29;20263;-89
2022/04/15 08:40:46;;;;;;;2.10;1.03;;;;;;;25.05;27.25;99456.03;4957482;29;20181;-90
2022/04/15 08:43:11;;;;;;;3.80;1.57;;;;;;;25.27;26.25;99451.03;4917498;28;1181167;-90
2022/04/15 08:45:41;;;;;;;4.57;1.40;;;;;;;25.52;26.81;99447.41;4958325;29;20193;-90
2022/04/15 08:48:07;;;;;;;1.53;0.80;;;;;;;25.56;26.19;99440.69;4958344;29;20200;-91
2022/04/15 08:50:32;;;;;;;3.57;1.30;;;;;;;25.83;26.93;99445.72;4958561;29;20203;-91
2022/04/15 08:52:59;;;;;;;3.03;1.63;;;;;;;26.24;25.97;99438.41;4941479;29;20185;-90
2022/04/15 08:55:27;;;;;;;4.85;1.45;;;;;;;26.35;26.60;99439.91;4958337;29;20236;-90
2022/04/15 08:57:55;;;;;;;2.05;1.15;;;;;;;26.61;25.33;99435.94;4958157;29;20216;-91
2022/04/15 09:00:21;;;;;;;1.77;0.77;;;;;;;26.81;25.31;99429.13;4958237;29;20268;-92
2022/04/15 09:02:49;;;;;;;3.92;1.52;;;;;;;27.04;24.90;99434.56;4958241;29;20256;-91
2022/04/15 09:05:21;;;;;;;5.60;1.70;;;;;;;27.27;25.60;99421.09;4941275;29;20196;-91
2022/04/15 09:07:46;;;;;;;2.58;1.05;;;;;;;27.22;24.05;99418.94;4958525;29;20294;-90
2022/04/15 09:10:12;;;;;;;3.65;1.23;;;;;;;26.88;23.37;99420.34;4958201;29;20181;-91
2022/04/15 09:12:40;;;;;;;1.38;0.70;;;;;;;26.72;24.81;99416.72;4958016;29;20620;-91
2022/04/15 09:15:06;;;;;;;1.15;0.75;;;;;;;27.02;25.40;99412.34;4957887;29;20605;-91
2022/04/15 09:17:34;;;;;;;1.70;0.90;;;;;;;26.84;24.61;99414.47;4957844;29;20169;-92
2022/04/15 09:20:00;;;;;;;3.83;1.55;;;;;;;27.08;25.35;99405.41;4957994;29;20260;-93
2022/04/15 09:22:26;;;;;;;1.83;1.10;;;;;;;27.37;25.01;99398.28;4957757;29;20173;-90
2022/04/15 09:24:52;;;;;;;3.47;1.40;;;;;;;27.56;24.86;99397.00;4958047;29;20179;-91
2022/04/15 09:27:19;;;;;;;1.85;0.80;;;;;;;27.58;24.40;99396.78;4957620;29;20197;-90
2022/04/15 09:29:46;;;;;;;2.33;1.10;;;;;;;27.64;24.20;99388.84;4957676;29;20184;-89
2022/04/15 09:32:16;;;;;;;5.30;1.08;;;;;;;27.69;23.21;99385.59;4957470;29;20652;-89
2022/04/15 09:35:05;;;;;;;8.45;1.15;;;;;;;27.74;24.38;99386.72;4957872;29;20233;-89
2022/04/15 09:37:40;;;;;;;2.83;0.80;;;;;;;27.37;24.86;99387.53;4957735;29;20185;-91
2022/04/15 09:40:09;;;;;;;1.73;0.90;;;;;;;27.43;24.88;99388.69;4957770;29;20161;-89
2022/04/15 09:42:36;;;;;;;1.55;0.80;;;;;;;27.68;23.77;99375.81;4957755;28;20306;-91
2022/04/15 09:45:17;;;;;;;1.83;0.75;;;;;;;27.87;23.55;99378.81;4957078;28;20252;-92
2022/04/15 09:47:43;;;;;;;1.92;0.70;;;;;;;28.19;24.61;99364.19;4940858;29;20205;-92
2022/04/15 09:50:27;;;;;;;2.38;0.68;;;;;;;28.41;23.70;99368.59;4957478;29;20188;-93
2022/04/15 09:52:55;;;;;;;1.17;0.63;;;;;;;28.19;23.41;99368.72;4957576;29;20195;-91
2022/04/15 09:55:23;;;;;;;2.90;1.33;;;;;;;28.23;24.00;99365.47;4957434;29;20251;-89
2022/04/15 09:57:50;;;;;;;1.20;0.68;;;;;;;27.96;22.62;99369.63;4957170;29;20181;-91
2022/04/15 10:00:21;;;;;;;1.90;0.77;;;;;;;28.03;22.88;99353.59;4940226;29;20177;-93
2022/04/15 10:02:49;;;;;;;2.03;0.85;;;;;;;28.46;23.81;99352.69;4957466;29;20157;-90
2022/04/15 10:05:15;;;;;;;2.03;0.63;;;;;;;28.59;23.96;99350.13;4957265;29;20181;-90
2022/04/15 10:07:51;;;;;;;1.23;0.75;;;;;;;28.46;22.97;99343.75;4940040;29;20300;-92
2022/04/15 10:10:17;;;;;;;4.95;0.60;;;;;;;28.60;22.75;99346.44;4940294;29;20168;-91
2022/04/15 10:12:43;;;;;;;1.75;0.88;;;;;;;28.16;23.23;99331.34;4940548;29;20185;-92
2022/04/15 10:15:10;;;;;;;2.05;0.80;;;;;;;28.10;22.55;99332.09;4956885;29;20181;-90
2022/04/15 10:17:38;;;;;;;2.80;0.50;;;;;;;28.48;24.08;99325.53;4956910;29;20188;-91
2022/04/15 10:20:04;;;;;;;1.02;0.50;;;;;;;28.68;24.55;99318.53;4957111;29;20215;-93
2022/04/15 10:22:30;;;;;;;13.70;0.77;;;;;;;28.98;24.23;99321.94;4956690;29;20260;-89
2022/04/15 10:24:56;;;;;;;1.27;0.65;;;;;;;28.91;22.51;99319.16;4956968;29;20173;-88
2022/04/15 10:27:26;;;;;;;2.67;0.80;;;;;;;28.99;22.14;99310.09;4939504;29;20267;-91
2022/04/15 10:30:14;;;;;;;4.10;0.90;;;;;;;28.69;21.93;99304.00;4939630;29;20348;-91
2022/04/15 10:32:52;;;;;;;1.20;0.60;;;;;;;28.34;22.84;99300.28;4956814;29;20203;-89
2022/04/15 10:35:24;;;;;;;2.28;1.05;;;;;;;28.08;22.66;99301.81;4956987;29;20177;-89
2022/04/15 10:37:55;;;;;;;2.63;0.70;;;;;;;28.36;21.87;99305.47;4956386;29;20184;-89
2022/04/15 10:40:26;;;;;;;1.58;0.63;;;;;;;28.72;21.28;99294.69;4939372;29;20185;-90
2022/04/15 10:42:52;;;;;;;1.75;0.70;;;;;;;29.08;21.76;99281.94;4956412;28;20553;-90
2022/04/15 10:45:34;;;;;;;0.98;0.57;;;;;;;28.91;22.16;99286.78;4956337;29;20181;-90
2022/04/15 10:48:01;;;;;;;1.48;0.60;;;;;;;28.87;21.59;99282.81;4956606;29;20162;-91
2022/04/15 10:50:41;;;;;;;4.32;1.13;;;;;;;29.14;22.63;99275.78;4939355;29;20187;-92
2022/04/15 10:53:31;;;;;;;1.83;0.65;;;;;;;29.37;20.89;99278.25;4940557;29;20511;-91
2022/04/15 10:56:09;;;;;;;4.22;1.35;;;;;;;28.94;20.00;99274.75;4938670;29;20176;-92
2022/04/15 11:03:27;;;;;;;;;;;;;;;;;;;;;
2022/04/15 11:05:57;;;;;;;1.30;0.60;;;;;;;29.04;20.46;99251.81;4900698;29;20216;-92
2022/04/15 11:08:25;;;;;;;1.25;0.60;;;;;;;29.35;22.58;99256.03;4938796;29;20185;-90
2022/04/15 11:11:02;;;;;;;1.40;0.68;;;;;;;29.03;22.58;99258.25;4955834;29;20240;-89
2022/04/15 11:13:39;;;;;;;1.48;0.60;;;;;;;28.83;22.12;99251.84;4938791;29;20227;-89
2022/04/15 11:16:24;;;;;;;5.07;0.90;;;;;;;28.48;21.51;99247.31;4938873;29;20193;-89
2022/04/15 11:18:53;;;;;;;1.48;0.65;;;;;;;28.06;22.99;99245.41;4956031;29;20161;-90
2022/04/15 11:21:24;;;;;;;3.10;0.85;;;;;;;28.68;23.07;99236.75;4955844;29;20244;-90
2022/04/15 11:23:57;;;;;;;1.65;0.57;;;;;;;29.32;21.48;99238.34;4938679;29;20552;-91
2022/04/15 11:26:25;;;;;;;1.17;0.57;;;;;;;29.66;21.40;99242.91;4955809;29;20207;-91
2022/04/15 11:28:52;;;;;;;0.93;0.38;;;;;;;29.39;22.34;99236.53;4955743;29;20193;-91
2022/04/15 11:31:25;;;;;;;1.45;0.50;;;;;;;29.82;21.50;99229.91;4955722;29;20181;-91
2022/04/15 11:33:51;;;;;;;1.25;0.50;;;;;;;29.95;20.51;99226.47;4955417;29;20189;-89
2022/04/15 11:36:21;;;;;;;1.30;0.57;;;;;;;29.38;20.75;99215.09;4955835;29;20205;-91
2022/04/15 11:38:48;;;;;;;1.58;0.57;;;;;;;29.16;22.82;99219.72;4938383;29;20189;-89